createdAt,value
2018-12-06T00:01:46.499Z,96.00
2018-12-06T00:04:13.961Z,96.00
2018-12-06T00:06:41.413Z,96.00
2018-12-06T00:09:08.877Z,95.90
2018-12-06T00:11:36.323Z,96.00
2018-12-06T00:14:03.820Z,96.10
2018-12-06T00:16:31.319Z,96.00
2018-12-06T00:19:07.145Z,95.90
2018-12-06T00:21:35.278Z,95.90
2018-12-06T00:24:02.799Z,95.90
2018-12-06T00:26:30.249Z,95.90
2018-12-06T00:28:57.761Z,95.90
2018-12-06T00:31:25.213Z,95.90
2018-12-06T00:33:52.677Z,95.90
2018-12-06T00:36:20.125Z,96.00
2018-12-06T00:38:47.577Z,95.90
2018-12-06T00:41:15.075Z,96.00
2018-12-06T00:43:42.547Z,96.20
2018-12-06T00:46:10.016Z,96.00
2018-12-06T00:48:37.623Z,96.00
2018-12-06T00:51:05.082Z,95.90
2018-12-06T00:53:32.537Z,95.60
2018-12-06T00:55:59.989Z,95.60
2018-12-06T00:58:27.450Z,95.50
2018-12-06T01:00:54.900Z,95.40
2018-12-06T01:03:22.445Z,95.60
2018-12-06T01:05:49.951Z,95.40
2018-12-06T01:08:17.441Z,95.30
2018-12-06T01:10:44.934Z,95.40
2018-12-06T01:13:12.443Z,95.70
2018-12-06T01:15:39.899Z,95.70
2018-12-06T01:18:07.349Z,95.80
2018-12-06T01:20:34.801Z,95.80
2018-12-06T01:23:02.301Z,95.80
2018-12-06T01:25:29.744Z,95.70
2018-12-06T01:27:57.197Z,95.60
2018-12-06T01:30:24.641Z,95.60
2018-12-06T01:32:52.097Z,95.60
2018-12-06T01:35:19.550Z,95.70
2018-12-06T01:37:47.026Z,95.70
2018-12-06T01:40:14.477Z,95.70
2018-12-06T01:42:41.926Z,95.90
2018-12-06T01:45:09.425Z,95.90
2018-12-06T01:47:36.878Z,96.10
2018-12-06T01:50:05.830Z,96.20
2018-12-06T01:52:33.286Z,96.30
2018-12-06T01:55:00.741Z,96.30
2018-12-06T01:57:28.189Z,96.30
2018-12-06T01:59:55.659Z,96.30
2018-12-06T02:02:23.145Z,96.60
2018-12-06T02:04:50.616Z,96.80
2018-12-06T02:07:18.145Z,96.90
2018-12-06T02:09:45.608Z,96.90
2018-12-06T02:12:13.182Z,96.80
2018-12-06T02:14:40.648Z,96.80
2018-12-06T02:17:08.090Z,96.70
2018-12-06T02:19:35.617Z,96.60
2018-12-06T02:22:03.069Z,96.60
2018-12-06T02:24:30.530Z,96.50
2018-12-06T02:26:58.023Z,96.40
2018-12-06T02:29:27.410Z,96.50
2018-12-06T02:31:54.859Z,96.30
2018-12-06T02:34:22.313Z,96.30
2018-12-06T02:36:49.758Z,96.30
2018-12-06T02:39:17.219Z,96.20
2018-12-06T02:41:44.664Z,96.10
2018-12-06T02:44:12.109Z,96.20
2018-12-06T02:46:39.649Z,96.10
2018-12-06T02:49:07.187Z,96.00
2018-12-06T02:51:34.633Z,96.00
2018-12-06T02:54:02.081Z,96.00
2018-12-06T02:56:29.536Z,96.00
2018-12-06T02:58:56.981Z,96.10
2018-12-06T03:01:24.492Z,96.10
2018-12-06T03:03:52.025Z,96.20
2018-12-06T03:06:19.483Z,96.30
2018-12-06T03:08:46.928Z,96.50
2018-12-06T03:11:14.378Z,96.60
2018-12-06T03:13:41.817Z,96.60
2018-12-06T03:16:09.310Z,96.60
2018-12-06T03:18:36.762Z,96.70
2018-12-06T03:21:04.213Z,96.70
2018-12-06T03:23:31.688Z,96.80
2018-12-06T03:25:59.186Z,96.90
2018-12-06T03:28:26.631Z,97.00
2018-12-06T03:30:54.087Z,97.00
2018-12-06T03:33:21.548Z,97.10
2018-12-06T03:35:49.078Z,97.20
2018-12-06T03:38:16.561Z,97.20
2018-12-06T03:40:44.004Z,97.50
2018-12-06T03:43:11.689Z,97.20
2018-12-06T03:45:39.133Z,97.30
2018-12-06T03:48:06.568Z,97.30
2018-12-06T03:50:34.025Z,97.30
2018-12-06T03:53:01.466Z,97.30
2018-12-06T03:55:28.915Z,97.30
2018-12-06T03:57:56.361Z,97.30
2018-12-06T04:00:23.813Z,97.30
2018-12-06T04:02:51.251Z,97.30
2018-12-06T04:05:18.737Z,97.30
2018-12-06T04:07:46.185Z,97.30
2018-12-06T04:10:13.635Z,97.30
2018-12-06T04:12:41.090Z,97.30
2018-12-06T04:15:08.758Z,97.20
2018-12-06T04:17:36.214Z,97.20
2018-12-06T04:20:04.839Z,97.20
2018-12-06T04:22:32.374Z,97.20
2018-12-06T04:24:59.822Z,97.20
2018-12-06T04:27:27.272Z,97.20
2018-12-06T04:29:54.729Z,97.20
2018-12-06T04:32:22.175Z,97.20
2018-12-06T04:34:49.617Z,97.20
2018-12-06T04:37:17.072Z,97.20
2018-12-06T04:39:44.521Z,97.20
2018-12-06T04:42:11.976Z,97.20
2018-12-06T04:44:39.427Z,97.20
2018-12-06T04:47:06.873Z,97.20
2018-12-06T04:49:34.310Z,97.20
2018-12-06T04:52:01.797Z,97.20
2018-12-06T04:54:29.246Z,97.20
2018-12-06T04:56:56.790Z,97.20
2018-12-06T04:59:24.265Z,97.20
2018-12-06T05:01:51.728Z,97.20
2018-12-06T05:04:19.215Z,97.30
2018-12-06T05:06:46.676Z,97.20
2018-12-06T05:09:14.114Z,97.20
2018-12-06T05:11:41.566Z,97.20
2018-12-06T05:14:09.001Z,97.20
2018-12-06T05:16:36.489Z,97.20
2018-12-06T05:19:03.942Z,97.20
2018-12-06T05:21:31.429Z,97.20
2018-12-06T05:23:58.870Z,97.20
2018-12-06T05:26:26.313Z,97.20
2018-12-06T05:28:53.757Z,97.10
2018-12-06T05:31:21.209Z,97.10
2018-12-06T05:33:48.653Z,97.20
2018-12-06T05:36:16.099Z,97.20
2018-12-06T05:38:43.587Z,97.20
2018-12-06T05:41:11.026Z,97.10
2018-12-06T05:43:38.477Z,97.10
2018-12-06T05:46:05.978Z,97.10
2018-12-06T05:48:33.426Z,96.90
2018-12-06T05:51:00.869Z,96.90
2018-12-06T05:53:28.322Z,96.90
2018-12-06T05:55:55.761Z,96.80
2018-12-06T05:58:23.212Z,96.80
2018-12-06T06:00:50.697Z,97.10
2018-12-06T06:03:18.150Z,97.00
2018-12-06T06:05:45.593Z,97.10
2018-12-06T06:08:13.042Z,97.10
2018-12-06T06:10:40.490Z,96.90
2018-12-06T06:13:07.936Z,97.10
2018-12-06T06:15:35.384Z,97.20
2018-12-06T06:18:02.842Z,97.20
2018-12-06T06:20:30.286Z,97.20
2018-12-06T06:22:57.746Z,97.20
2018-12-06T06:25:25.198Z,97.20
2018-12-06T06:27:52.647Z,97.20
2018-12-06T06:30:20.143Z,97.20
2018-12-06T06:32:47.588Z,97.20
2018-12-06T06:35:15.039Z,97.30
2018-12-06T06:37:42.517Z,97.30
2018-12-06T06:40:09.993Z,97.30
2018-12-06T06:42:37.482Z,97.30
2018-12-06T06:45:05.198Z,97.60
2018-12-06T06:47:33.144Z,97.40
2018-12-06T06:50:00.599Z,97.40
2018-12-06T06:52:28.051Z,97.40
2018-12-06T06:54:55.508Z,97.40
2018-12-06T06:57:22.966Z,97.40
2018-12-06T06:59:50.485Z,97.40
2018-12-06T07:02:17.990Z,97.40
2018-12-06T07:04:45.460Z,97.30
2018-12-06T07:07:12.996Z,97.30
2018-12-06T07:09:40.450Z,97.20
2018-12-06T07:12:08.113Z,97.20
2018-12-06T07:14:35.571Z,97.20
2018-12-06T07:17:04.104Z,97.20
2018-12-06T07:19:31.674Z,97.10
2018-12-06T07:22:00.705Z,97.10
2018-12-06T07:24:28.162Z,97.10
2018-12-06T07:27:00.427Z,97.10
2018-12-06T07:29:27.865Z,97.10
2018-12-06T07:31:55.309Z,97.10
2018-12-06T07:34:22.761Z,97.10
2018-12-06T07:36:50.209Z,97.10
2018-12-06T07:39:17.656Z,97.10
2018-12-06T07:41:45.141Z,97.00
2018-12-06T07:44:12.594Z,96.90
2018-12-06T07:46:40.037Z,97.00
2018-12-06T07:49:07.489Z,97.20
2018-12-06T07:51:34.937Z,96.90
2018-12-06T07:54:04.464Z,96.90
2018-12-06T07:56:32.923Z,96.60
2018-12-06T07:59:00.378Z,96.50
2018-12-06T08:01:27.917Z,96.30
2018-12-06T08:03:57.110Z,96.20
2018-12-06T08:06:24.894Z,95.80
2018-12-06T08:08:52.355Z,95.80
2018-12-06T08:11:19.820Z,95.70
2018-12-06T08:13:47.353Z,95.70
2018-12-06T08:16:14.809Z,95.60
2018-12-06T08:18:42.265Z,95.50
2018-12-06T08:21:09.710Z,95.60
2018-12-06T08:23:37.172Z,95.30
2018-12-06T08:26:04.615Z,95.30
2018-12-06T08:28:32.069Z,95.10
2018-12-06T08:30:59.525Z,94.80
2018-12-06T08:33:26.983Z,94.70
2018-12-06T08:35:54.435Z,94.50
2018-12-06T08:38:21.887Z,94.40
2018-12-06T08:40:49.341Z,94.30
2018-12-06T08:43:16.783Z,94.00
2018-12-06T08:45:44.238Z,93.90
2018-12-06T08:48:11.694Z,93.90
2018-12-06T08:50:39.146Z,93.60
2018-12-06T08:53:06.600Z,93.20
2018-12-06T08:55:34.067Z,93.00
2018-12-06T08:58:01.507Z,92.90
2018-12-06T09:00:28.966Z,92.90
2018-12-06T09:02:56.415Z,93.10
2018-12-06T09:05:23.867Z,92.90
2018-12-06T09:07:51.358Z,92.90
2018-12-06T09:10:18.894Z,93.00
2018-12-06T09:12:46.351Z,93.10
2018-12-06T09:15:13.804Z,93.20
2018-12-06T09:17:41.246Z,93.40
2018-12-06T09:20:08.785Z,93.10
2018-12-06T09:22:36.238Z,93.10
2018-12-06T09:25:03.770Z,93.00
2018-12-06T09:27:31.235Z,93.10
2018-12-06T09:29:58.694Z,92.90
2018-12-06T09:32:26.220Z,92.80
2018-12-06T09:34:53.679Z,92.80
2018-12-06T09:37:21.190Z,92.90
2018-12-06T09:39:55.808Z,92.80
2018-12-06T09:42:23.251Z,92.60
2018-12-06T09:44:50.716Z,92.70
2018-12-06T09:47:18.168Z,92.70
2018-12-06T09:49:45.630Z,92.70
2018-12-06T09:52:13.072Z,92.60
2018-12-06T09:54:40.532Z,92.70
2018-12-06T09:57:07.982Z,92.60
2018-12-06T09:59:35.440Z,92.50
2018-12-06T10:02:02.890Z,92.40
2018-12-06T10:04:30.341Z,92.10
2018-12-06T10:06:57.789Z,92.00
2018-12-06T10:09:25.239Z,91.90
2018-12-06T10:11:52.787Z,91.90
2018-12-06T10:14:20.230Z,91.80
2018-12-06T10:16:47.684Z,91.70
2018-12-06T10:19:15.150Z,91.60
2018-12-06T10:21:42.750Z,91.60
2018-12-06T10:24:10.214Z,91.40
2018-12-06T10:26:37.669Z,91.40
2018-12-06T10:29:05.119Z,91.40
2018-12-06T10:31:32.581Z,91.20
2018-12-06T10:34:00.029Z,91.20
2018-12-06T10:36:27.480Z,91.30
2018-12-06T10:38:54.927Z,91.00
2018-12-06T10:41:22.381Z,91.00
2018-12-06T10:43:49.860Z,91.10
2018-12-06T10:46:19.250Z,91.10
2018-12-06T10:48:46.706Z,91.00
2018-12-06T10:51:26.106Z,91.20
2018-12-06T10:53:53.562Z,91.00
2018-12-06T10:56:21.023Z,90.90
2018-12-06T10:58:48.479Z,90.90
2018-12-06T11:01:17.495Z,90.70
2018-12-06T11:03:50.686Z,90.80
2018-12-06T11:06:20.495Z,90.70
2018-12-06T11:08:47.938Z,90.80
2018-12-06T11:11:15.398Z,90.50
2018-12-06T11:13:42.877Z,90.20
2018-12-06T11:16:10.375Z,90.20
2018-12-06T11:19:07.322Z,90.20
2018-12-06T11:21:35.135Z,90.20
2018-12-06T11:24:02.670Z,90.50
2018-12-06T11:26:30.179Z,90.40
2018-12-06T11:28:57.631Z,90.60
2018-12-06T11:31:25.083Z,90.60
2018-12-06T11:33:52.522Z,90.80
2018-12-06T11:36:20.022Z,90.80
2018-12-06T11:38:47.562Z,90.90
2018-12-06T11:41:15.059Z,90.60
2018-12-06T11:43:42.503Z,90.60
2018-12-06T11:46:09.950Z,90.70
2018-12-06T11:48:37.395Z,90.60
2018-12-06T11:51:04.944Z,90.30
2018-12-06T11:53:32.389Z,90.20
2018-12-06T11:55:59.859Z,89.70
2018-12-06T11:58:27.301Z,89.10
2018-12-06T12:00:55.562Z,88.70
2018-12-06T12:03:23.539Z,88.60
2018-12-06T12:05:58.382Z,87.60
2018-12-06T12:08:20.445Z,87.00
2018-12-06T12:10:47.893Z,86.20
2018-12-06T12:13:15.344Z,86.00
2018-12-06T12:15:42.792Z,86.20
2018-12-06T12:18:10.281Z,82.50
2018-12-06T12:20:37.718Z,81.00
2018-12-06T12:23:05.170Z,79.60
2018-12-06T12:25:32.625Z,78.80
2018-12-06T12:28:00.087Z,79.10
2018-12-06T12:30:27.522Z,79.60
2018-12-06T12:32:54.970Z,79.40
2018-12-06T12:35:22.419Z,78.60
2018-12-06T12:37:49.874Z,77.10
2018-12-06T12:40:17.320Z,76.50
2018-12-06T12:42:44.770Z,74.90
2018-12-06T12:45:12.218Z,74.00
2018-12-06T12:47:39.680Z,73.90
2018-12-06T12:50:07.310Z,74.00
2018-12-06T12:52:34.763Z,74.00
2018-12-06T12:55:02.252Z,74.40
2018-12-06T12:57:29.746Z,74.90
2018-12-06T12:59:57.191Z,73.30
2018-12-06T13:02:24.645Z,72.40
2018-12-06T13:04:52.086Z,70.90
2018-12-06T13:07:19.546Z,70.90
2018-12-06T13:09:46.990Z,71.70
2018-12-06T13:12:14.437Z,71.70
2018-12-06T13:14:41.879Z,71.90
2018-12-06T13:17:09.325Z,72.20
2018-12-06T13:19:36.863Z,73.70
2018-12-06T13:22:04.405Z,75.00
2018-12-06T13:24:31.900Z,76.60
2018-12-06T13:26:59.358Z,76.70
2018-12-06T13:29:26.797Z,77.60
2018-12-06T13:31:54.336Z,77.80
2018-12-06T13:34:21.831Z,77.90
2018-12-06T13:36:49.278Z,78.00
2018-12-06T13:39:16.764Z,77.70
2018-12-06T13:41:44.221Z,78.10
2018-12-06T13:44:11.680Z,77.90
2018-12-06T13:46:39.144Z,77.20
2018-12-06T13:49:06.666Z,77.10
2018-12-06T13:51:34.110Z,76.80
2018-12-06T13:54:01.731Z,77.10
2018-12-06T13:56:29.175Z,77.40
2018-12-06T13:58:56.632Z,77.20
2018-12-06T14:01:24.291Z,77.20
2018-12-06T14:03:51.970Z,78.10
2018-12-06T14:06:19.932Z,78.40
2018-12-06T14:08:47.414Z,79.10
2018-12-06T14:11:14.874Z,78.90
2018-12-06T14:13:42.374Z,79.10
2018-12-06T14:16:10.643Z,79.10
2018-12-06T14:18:38.374Z,79.30
2018-12-06T14:21:05.822Z,79.40
2018-12-06T14:23:33.285Z,79.80
2018-12-06T14:26:00.783Z,79.70
2018-12-06T14:28:28.237Z,79.90
2018-12-06T14:30:55.682Z,80.20
2018-12-06T14:33:23.130Z,80.20
2018-12-06T14:35:50.613Z,80.60
2018-12-06T14:38:18.110Z,81.20
2018-12-06T14:40:45.563Z,81.40
2018-12-06T14:43:13.194Z,81.40
2018-12-06T14:45:40.841Z,82.00
2018-12-06T14:48:09.034Z,82.20
2018-12-06T14:50:36.478Z,83.40
2018-12-06T14:53:03.978Z,83.50
2018-12-06T14:55:31.471Z,83.70
2018-12-06T14:57:58.938Z,83.90
2018-12-06T15:00:26.427Z,84.50
2018-12-06T15:02:53.888Z,84.50
2018-12-06T15:05:21.330Z,85.00
2018-12-06T15:07:48.824Z,85.10
2018-12-06T15:10:16.267Z,85.20
2018-12-06T15:12:43.726Z,85.20
2018-12-06T15:15:11.215Z,85.20
2018-12-06T15:17:38.671Z,85.50
2018-12-06T15:20:06.211Z,85.40
2018-12-06T15:22:33.714Z,85.50
2018-12-06T15:25:01.478Z,86.10
2018-12-06T15:27:29.111Z,86.30
2018-12-06T15:29:56.703Z,86.60
2018-12-06T15:32:24.194Z,86.70
2018-12-06T15:34:51.699Z,86.80
2018-12-06T15:37:19.158Z,87.00
2018-12-06T15:39:46.614Z,87.10
2018-12-06T15:42:14.065Z,87.30
2018-12-06T15:44:41.521Z,87.40
2018-12-06T15:47:08.976Z,87.70
2018-12-06T15:49:36.471Z,87.70
2018-12-06T15:52:03.955Z,87.80
2018-12-06T15:54:31.521Z,88.10
2018-12-06T15:56:58.970Z,88.00
2018-12-06T15:59:26.695Z,88.00
2018-12-06T16:02:00.806Z,88.20
2018-12-06T16:04:28.270Z,88.20
2018-12-06T16:06:55.722Z,88.30
2018-12-06T16:09:23.178Z,88.40
2018-12-06T16:11:50.626Z,88.60
2018-12-06T16:14:18.231Z,88.70
2018-12-06T16:16:45.683Z,88.80
2018-12-06T16:19:13.153Z,89.00
2018-12-06T16:21:40.609Z,89.00
2018-12-06T16:24:08.144Z,89.20
2018-12-06T16:26:35.682Z,89.30
2018-12-06T16:29:03.187Z,89.50
2018-12-06T16:31:30.632Z,89.80
2018-12-06T16:33:58.095Z,89.80
2018-12-06T16:36:25.545Z,90.00
2018-12-06T16:38:53.009Z,90.10
2018-12-06T16:41:20.685Z,90.30
2018-12-06T16:43:48.342Z,90.60
2018-12-06T16:46:15.794Z,90.80
2018-12-06T16:48:43.309Z,91.00
2018-12-06T16:51:10.793Z,91.10
2018-12-06T16:53:38.286Z,91.30
2018-12-06T16:56:05.798Z,91.40
2018-12-06T16:58:33.257Z,91.80
2018-12-06T17:01:02.157Z,91.90
2018-12-06T17:03:29.615Z,92.00
2018-12-06T17:05:57.067Z,92.30
2018-12-06T17:08:24.722Z,92.50
2018-12-06T17:10:52.185Z,92.80
2018-12-06T17:13:19.639Z,93.00
2018-12-06T17:15:47.203Z,93.20
2018-12-06T17:18:14.692Z,93.20
2018-12-06T17:20:42.172Z,93.10
2018-12-06T17:23:10.038Z,93.00
2018-12-06T17:25:38.108Z,92.90
2018-12-06T17:28:05.571Z,92.80
2018-12-06T17:30:33.107Z,92.60
2018-12-06T17:33:00.573Z,92.60
2018-12-06T17:35:28.077Z,92.40
2018-12-06T17:37:55.532Z,92.20
2018-12-06T17:40:23.030Z,92.10
2018-12-06T17:42:50.496Z,92.20
2018-12-06T17:45:18.011Z,92.10
2018-12-06T17:47:45.466Z,92.10
2018-12-06T17:50:12.963Z,92.00
2018-12-06T17:52:40.431Z,91.90
2018-12-06T17:55:08.910Z,91.90
2018-12-06T17:57:36.634Z,91.70
2018-12-06T18:00:07.881Z,91.60
2018-12-06T18:02:35.326Z,91.50
2018-12-06T18:05:02.785Z,91.40
2018-12-06T18:07:30.353Z,91.40
2018-12-06T18:09:57.815Z,91.30
2018-12-06T18:12:25.349Z,91.30
2018-12-06T18:14:52.808Z,91.40
2018-12-06T18:17:20.264Z,91.30
2018-12-06T18:19:47.719Z,91.40
2018-12-06T18:22:15.167Z,91.30
2018-12-06T18:24:42.627Z,91.30
2018-12-06T18:27:10.086Z,91.40
2018-12-06T18:29:37.548Z,91.20
2018-12-06T18:32:05.035Z,91.20
2018-12-06T18:34:32.487Z,91.20
2018-12-06T18:36:59.941Z,91.20
2018-12-06T18:39:27.420Z,91.20
2018-12-06T18:41:54.871Z,91.10
2018-12-06T18:44:22.340Z,91.10
2018-12-06T18:46:49.874Z,91.10
2018-12-06T18:49:17.344Z,91.20
2018-12-06T18:51:44.827Z,91.20
2018-12-06T18:54:12.376Z,91.10
2018-12-06T18:56:39.834Z,91.10
2018-12-06T18:59:07.317Z,91.10
2018-12-06T19:01:34.771Z,91.10
2018-12-06T19:04:02.340Z,91.20
2018-12-06T19:06:29.795Z,91.30
2018-12-06T19:08:57.248Z,91.30
2018-12-06T19:11:24.705Z,91.30
2018-12-06T19:13:52.207Z,91.40
2018-12-06T19:16:19.682Z,91.60
2018-12-06T19:18:47.152Z,91.70
2018-12-06T19:21:14.613Z,91.70
2018-12-06T19:23:42.071Z,91.60
2018-12-06T19:26:09.569Z,91.60
2018-12-06T19:28:37.136Z,91.50
2018-12-06T19:31:04.663Z,91.40
2018-12-06T19:33:32.115Z,91.30
2018-12-06T19:35:59.583Z,91.30
2018-12-06T19:38:27.043Z,91.20
2018-12-06T19:40:54.496Z,91.20
2018-12-06T19:43:21.988Z,91.10
2018-12-06T19:45:49.469Z,91.10
2018-12-06T19:48:16.914Z,91.00
2018-12-06T19:50:44.382Z,91.00
2018-12-06T19:53:11.903Z,91.00
2018-12-06T19:55:39.371Z,90.90
2018-12-06T19:58:06.826Z,90.90
2018-12-06T20:00:34.327Z,90.90
2018-12-06T20:03:01.785Z,90.80
2018-12-06T20:05:29.239Z,90.60
2018-12-06T20:07:56.702Z,90.70
2018-12-06T20:10:24.251Z,90.60
2018-12-06T20:12:51.700Z,90.50
2018-12-06T20:15:19.164Z,90.50
2018-12-06T20:17:46.624Z,90.40
2018-12-06T20:20:14.087Z,90.40
2018-12-06T20:22:41.539Z,90.40
2018-12-06T20:25:09.050Z,90.40
2018-12-06T20:27:36.515Z,90.40
2018-12-06T20:30:04.337Z,90.30
2018-12-06T20:32:31.798Z,90.20
2018-12-06T20:34:59.247Z,90.20
2018-12-06T20:37:26.704Z,90.10
2018-12-06T20:39:54.150Z,90.10
2018-12-06T20:42:21.600Z,90.00
2018-12-06T20:44:49.042Z,90.00
2018-12-06T20:47:18.737Z,89.80
2018-12-06T20:49:46.179Z,89.60
2018-12-06T20:52:13.654Z,89.70
2018-12-06T20:54:41.161Z,89.60
2018-12-06T20:57:08.617Z,89.50
2018-12-06T20:59:36.103Z,89.40
2018-12-06T21:02:03.881Z,89.30
2018-12-06T21:04:31.373Z,89.40
2018-12-06T21:06:58.834Z,89.10
2018-12-06T21:09:26.284Z,89.00
2018-12-06T21:11:53.737Z,88.70
2018-12-06T21:14:22.168Z,88.50
2018-12-06T21:16:49.838Z,88.30
2018-12-06T21:19:17.283Z,88.20
2018-12-06T21:21:44.754Z,87.70
2018-12-06T21:24:12.233Z,87.60
2018-12-06T21:26:39.722Z,87.40
2018-12-06T21:29:07.202Z,87.10
2018-12-06T21:31:34.657Z,87.10
2018-12-06T21:34:02.106Z,86.80
2018-12-06T21:36:29.561Z,86.60
2018-12-06T21:38:57.018Z,86.60
2018-12-06T21:41:24.478Z,86.40
2018-12-06T21:43:51.923Z,86.00
2018-12-06T21:46:19.410Z,86.10
2018-12-06T21:48:46.893Z,86.00
2018-12-06T21:51:14.342Z,85.70
2018-12-06T21:53:41.794Z,85.50
2018-12-06T21:56:09.284Z,85.40
2018-12-06T21:58:36.770Z,85.20
2018-12-06T22:01:04.300Z,85.00
2018-12-06T22:03:31.750Z,84.70
2018-12-06T22:05:59.233Z,84.70
2018-12-06T22:08:26.685Z,84.60
2018-12-06T22:10:54.214Z,84.70
2018-12-06T22:13:21.662Z,84.60
2018-12-06T22:15:49.115Z,84.50
2018-12-06T22:18:16.565Z,84.50
2018-12-06T22:20:44.013Z,84.40
2018-12-06T22:23:11.473Z,84.30
2018-12-06T22:25:38.915Z,84.20
2018-12-06T22:28:06.370Z,84.30
2018-12-06T22:30:33.854Z,84.00
2018-12-06T22:33:01.345Z,84.20
2018-12-06T22:35:28.783Z,84.00
2018-12-06T22:37:56.233Z,84.00
2018-12-06T22:40:23.678Z,84.10
2018-12-06T22:42:51.133Z,83.90
2018-12-06T22:45:28.251Z,84.50
2018-12-06T22:47:55.706Z,83.50
2018-12-06T22:50:23.155Z,83.60
2018-12-06T22:52:50.607Z,83.50
2018-12-06T22:55:18.051Z,83.10
2018-12-06T22:57:45.504Z,83.00
2018-12-06T23:00:15.231Z,83.00
2018-12-06T23:02:42.678Z,82.90
2018-12-06T23:05:10.153Z,83.10
2018-12-06T23:07:37.613Z,83.10
2018-12-06T23:10:05.937Z,83.00
2018-12-06T23:12:33.393Z,83.00
2018-12-06T23:15:00.935Z,82.90
2018-12-06T23:17:28.387Z,83.10
2018-12-06T23:19:55.831Z,83.20
2018-12-06T23:22:23.283Z,83.10
2018-12-06T23:24:50.727Z,83.00
2018-12-06T23:27:18.179Z,83.10
2018-12-06T23:29:45.626Z,83.30
2018-12-06T23:32:13.082Z,83.20
2018-12-06T23:34:40.572Z,83.30
2018-12-06T23:37:08.022Z,83.20
2018-12-06T23:39:35.470Z,83.10
2018-12-06T23:42:02.954Z,83.00
2018-12-06T23:44:30.402Z,83.00
2018-12-06T23:46:57.841Z,82.90
2018-12-06T23:49:25.294Z,82.90
2018-12-06T23:51:52.738Z,82.80
2018-12-06T23:54:20.190Z,82.90
2018-12-06T23:56:47.637Z,82.90
2018-12-06T23:59:15.099Z,83.00
